createdAt,value
2019-05-07T00:01:52.640Z,31.07
2019-05-07T00:04:22.422Z,30.13
2019-05-07T00:06:52.617Z,26.67
2019-05-07T00:09:20.544Z,26.70
2019-05-07T00:11:48.750Z,27.67
2019-05-07T00:14:17.120Z,21.80
2019-05-07T00:16:45.665Z,20.00
2019-05-07T00:19:14.251Z,17.17
2019-05-07T00:21:42.521Z,17.77
2019-05-07T00:24:12.974Z,15.50
2019-05-07T00:26:43.060Z,19.93
2019-05-07T00:29:13.050Z,18.37
2019-05-07T00:31:41.942Z,17.20
2019-05-07T00:34:12.528Z,16.63
2019-05-07T00:36:48.276Z,17.03
2019-05-07T00:39:26.885Z,14.90
2019-05-07T00:42:03.108Z,13.53
2019-05-07T00:44:32.786Z,13.90
2019-05-07T00:47:02.184Z,19.83
2019-05-07T00:49:32.977Z,17.47
2019-05-07T00:52:02.669Z,14.97
2019-05-07T00:54:32.512Z,19.83
2019-05-07T00:57:02.973Z,17.63
2019-05-07T00:59:32.246Z,15.37
2019-05-07T01:02:02.200Z,16.27
2019-05-07T01:04:32.994Z,16.30
2019-05-07T01:07:02.611Z,12.20
2019-05-07T01:09:32.391Z,15.53
2019-05-07T01:12:02.952Z,14.80
2019-05-07T01:14:32.487Z,13.53
2019-05-07T01:17:02.418Z,13.67
2019-05-07T01:19:32.691Z,13.33
2019-05-07T01:22:00.377Z,17.30
2019-05-07T01:24:28.585Z,11.23
2019-05-07T01:26:56.855Z,16.50
2019-05-07T01:29:26.062Z,14.80
2019-05-07T01:31:58.924Z,15.17
2019-05-07T01:34:35.008Z,16.47
2019-05-07T01:37:03.768Z,12.20
2019-05-07T01:39:32.770Z,14.20
2019-05-07T01:42:02.138Z,12.63
2019-05-07T01:44:32.539Z,16.67
2019-05-07T01:47:02.345Z,13.73
2019-05-07T01:49:32.766Z,17.83
2019-05-07T01:52:02.287Z,11.10
2019-05-07T01:54:32.947Z,13.20
2019-05-07T01:57:02.639Z,11.67
2019-05-07T01:59:32.113Z,16.80
2019-05-07T02:02:03.022Z,13.60
2019-05-07T02:04:33.159Z,14.47
2019-05-07T02:07:12.031Z,13.93
2019-05-07T02:09:42.461Z,12.53
2019-05-07T02:12:15.868Z,12.57
2019-05-07T02:14:44.072Z,13.90
2019-05-07T02:17:13.621Z,13.13
2019-05-07T02:19:42.600Z,13.80
2019-05-07T02:22:13.251Z,15.53
2019-05-07T02:24:43.243Z,14.00
2019-05-07T02:27:12.620Z,12.57
2019-05-07T02:29:43.086Z,11.17
2019-05-07T02:32:13.370Z,11.90
2019-05-07T02:34:44.234Z,20.23
2019-05-07T02:37:12.994Z,22.60
2019-05-07T02:39:55.473Z,65.53
2019-05-07T02:42:24.065Z,12.70
2019-05-07T02:45:06.556Z,22.30
2019-05-07T02:47:35.129Z,18.60
2019-05-07T02:50:06.316Z,15.90
2019-05-07T02:52:53.613Z,14.37
2019-05-07T02:55:23.293Z,13.57
2019-05-07T02:57:53.954Z,10.77
2019-05-07T03:00:24.174Z,12.30
2019-05-07T03:02:53.042Z,12.50
2019-05-07T03:05:22.939Z,15.83
2019-05-07T03:07:53.498Z,12.03
2019-05-07T03:10:23.785Z,12.70
2019-05-07T03:12:53.603Z,13.17
2019-05-07T03:15:24.205Z,12.27
2019-05-07T03:17:54.046Z,11.83
2019-05-07T03:20:23.905Z,16.30
2019-05-07T03:22:53.907Z,11.37
2019-05-07T03:25:24.021Z,14.03
2019-05-07T03:27:53.641Z,10.83
2019-05-07T03:30:35.521Z,9.77
2019-05-07T03:33:06.996Z,9.70
2019-05-07T03:35:38.203Z,11.37
2019-05-07T03:38:07.092Z,11.43
2019-05-07T03:40:36.054Z,12.50
2019-05-07T03:43:06.018Z,10.27
2019-05-07T03:45:43.348Z,9.77
2019-05-07T03:48:13.858Z,14.73
2019-05-07T03:50:43.161Z,11.17
2019-05-07T03:53:14.311Z,13.27
2019-05-07T03:55:44.626Z,14.00
2019-05-07T03:58:14.619Z,12.50
2019-05-07T04:00:44.251Z,11.97
2019-05-07T04:03:13.974Z,15.00
2019-05-07T04:05:43.548Z,10.83
2019-05-07T04:08:13.113Z,16.90
2019-05-07T04:10:44.281Z,10.97
2019-05-07T04:13:13.428Z,9.03
2019-05-07T04:15:43.789Z,10.57
2019-05-07T04:18:13.165Z,11.57
2019-05-07T04:20:43.548Z,12.83
2019-05-07T04:23:13.813Z,12.23
2019-05-07T04:25:55.129Z,10.67
2019-05-07T04:28:43.661Z,8.50
2019-05-07T04:31:14.150Z,12.83
2019-05-07T04:33:44.188Z,13.83
2019-05-07T04:36:14.379Z,11.27
2019-05-07T04:38:43.942Z,9.50
2019-05-07T04:41:13.796Z,10.20
2019-05-07T04:43:43.518Z,11.17
2019-05-07T04:46:14.354Z,10.30
2019-05-07T04:48:43.912Z,14.63
2019-05-07T04:51:14.541Z,11.67
2019-05-07T04:53:43.096Z,11.27
2019-05-07T04:56:14.077Z,12.57
2019-05-07T04:58:43.335Z,16.27
2019-05-07T05:01:13.888Z,13.93
2019-05-07T05:03:43.735Z,12.27
2019-05-07T05:06:13.629Z,10.40
2019-05-07T05:08:43.502Z,13.13
2019-05-07T05:11:12.803Z,10.13
2019-05-07T05:13:44.452Z,16.07
2019-05-07T05:16:25.839Z,13.97
2019-05-07T05:18:54.328Z,11.20
2019-05-07T05:21:42.343Z,11.03
2019-05-07T05:24:15.195Z,14.10
2019-05-07T05:26:43.419Z,10.40
2019-05-07T05:29:12.233Z,10.17
2019-05-07T05:31:42.114Z,14.93
2019-05-07T05:34:12.854Z,11.30
2019-05-07T05:36:42.369Z,11.63
2019-05-07T05:39:10.291Z,12.50
2019-05-07T05:41:42.095Z,10.43
2019-05-07T05:44:11.956Z,12.00
2019-05-07T05:46:42.700Z,10.90
2019-05-07T05:49:11.852Z,13.13
2019-05-07T05:51:47.867Z,10.57
2019-05-07T05:54:32.677Z,8.30
2019-05-07T05:57:02.636Z,12.77
2019-05-07T05:59:47.395Z,10.27
2019-05-07T06:02:22.880Z,10.63
2019-05-07T06:04:55.724Z,14.33
2019-05-07T06:07:28.268Z,10.37
2019-05-07T06:10:02.571Z,10.33
2019-05-07T06:12:35.740Z,7.73
2019-05-07T06:15:18.075Z,9.73
2019-05-07T06:17:54.115Z,9.97
2019-05-07T06:20:42.735Z,9.07
2019-05-07T06:23:16.886Z,9.47
2019-05-07T06:25:47.097Z,10.03
2019-05-07T06:28:15.353Z,10.90
2019-05-07T06:30:43.764Z,11.97
2019-05-07T06:33:12.857Z,10.90
2019-05-07T06:35:42.872Z,5.90
2019-05-07T06:38:12.474Z,4.93
2019-05-07T06:40:42.493Z,7.10
2019-05-07T06:43:21.935Z,7.20
2019-05-07T06:45:55.344Z,9.40
2019-05-07T06:48:37.715Z,9.90
2019-05-07T06:50:56.819Z,9.27
2019-05-07T06:53:29.093Z,11.40
2019-05-07T06:55:58.306Z,10.63
2019-05-07T06:58:28.436Z,9.47
2019-05-07T07:01:13.544Z,9.43
2019-05-07T07:04:02.595Z,7.03
2019-05-07T07:06:32.896Z,10.33
2019-05-07T07:09:15.432Z,10.07
2019-05-07T07:11:48.062Z,12.27
2019-05-07T07:14:16.458Z,13.37
2019-05-07T07:16:44.724Z,12.43
2019-05-07T07:19:13.916Z,11.27
2019-05-07T07:21:42.289Z,9.07
2019-05-07T07:24:12.559Z,10.20
2019-05-07T07:26:42.238Z,8.10
2019-05-07T07:29:12.702Z,8.63
2019-05-07T07:31:46.469Z,13.67
2019-05-07T07:34:16.010Z,13.67
2019-05-07T07:37:01.801Z,11.27
2019-05-07T07:39:22.070Z,10.13
2019-05-07T07:41:58.133Z,9.63
2019-05-07T07:44:26.343Z,13.63
2019-05-07T07:46:54.561Z,13.73
2019-05-07T07:49:23.825Z,14.70
2019-05-07T07:51:55.664Z,11.80
2019-05-07T07:54:23.875Z,8.37
2019-05-07T07:57:02.158Z,9.57
2019-05-07T07:59:32.885Z,8.53
2019-05-07T08:02:08.743Z,11.30
2019-05-07T08:04:37.470Z,12.37
2019-05-07T08:07:05.717Z,11.10
2019-05-07T08:09:34.553Z,10.47
2019-05-07T08:12:03.041Z,12.30
2019-05-07T08:14:32.459Z,10.97
2019-05-07T08:17:02.649Z,9.10
2019-05-07T08:19:32.747Z,14.10
2019-05-07T08:22:02.929Z,12.73
2019-05-07T08:24:32.638Z,10.73
2019-05-07T08:27:02.416Z,10.73
2019-05-07T08:29:32.491Z,10.80
2019-05-07T08:32:15.349Z,11.33
2019-05-07T08:34:45.185Z,10.97
2019-05-07T08:37:16.735Z,11.57
2019-05-07T08:39:46.900Z,14.13
2019-05-07T08:42:15.429Z,11.67
2019-05-07T08:44:51.976Z,13.17
2019-05-07T08:47:22.808Z,12.23
2019-05-07T08:49:52.379Z,12.87
2019-05-07T08:52:22.687Z,13.90
2019-05-07T08:54:51.869Z,11.10
2019-05-07T08:57:22.560Z,11.60
2019-05-07T08:59:58.387Z,11.47
2019-05-07T09:02:22.203Z,13.23
2019-05-07T09:04:52.282Z,15.07
2019-05-07T09:07:21.905Z,10.90
2019-05-07T09:09:52.390Z,17.37
2019-05-07T09:12:20.251Z,22.27
2019-05-07T09:14:48.494Z,9.20
2019-05-07T09:17:16.712Z,11.63
2019-05-07T09:19:51.428Z,13.63
2019-05-07T09:22:15.040Z,9.93
2019-05-07T09:24:43.315Z,10.03
2019-05-07T09:27:16.029Z,8.87
2019-05-07T09:29:52.057Z,12.57
2019-05-07T09:32:25.068Z,9.53
2019-05-07T09:34:57.813Z,11.63
2019-05-07T09:37:32.425Z,9.77
2019-05-07T09:40:02.804Z,10.07
2019-05-07T09:42:33.302Z,8.60
2019-05-07T09:45:02.004Z,7.83
2019-05-07T09:47:32.495Z,8.57
2019-05-07T09:50:07.029Z,9.47
2019-05-07T09:52:32.154Z,8.17
2019-05-07T09:55:03.775Z,8.33
2019-05-07T09:57:31.561Z,12.57
2019-05-07T10:00:02.281Z,18.37
2019-05-07T10:02:32.043Z,22.50
2019-05-07T10:05:02.087Z,12.07
2019-05-07T10:07:32.221Z,9.43
2019-05-07T10:10:02.933Z,6.57
2019-05-07T10:12:32.977Z,8.23
2019-05-07T10:15:03.103Z,6.17
2019-05-07T10:17:33.249Z,6.30
2019-05-07T10:20:19.386Z,8.40
2019-05-07T10:22:42.687Z,6.23
2019-05-07T10:25:12.136Z,5.30
2019-05-07T10:27:41.816Z,4.43
2019-05-07T10:30:12.648Z,5.83
2019-05-07T10:32:42.149Z,4.47
2019-05-07T10:35:12.563Z,5.27
2019-05-07T10:37:42.230Z,6.23
2019-05-07T10:40:12.246Z,4.70
2019-05-07T10:42:43.066Z,7.57
2019-05-07T10:45:13.136Z,12.87
2019-05-07T10:47:44.756Z,6.70
2019-05-07T10:50:17.571Z,6.77
2019-05-07T10:52:45.771Z,6.73
2019-05-07T10:55:14.056Z,9.67
2019-05-07T10:57:43.280Z,10.50
2019-05-07T11:00:12.361Z,12.17
2019-05-07T11:02:42.596Z,8.97
2019-05-07T11:05:12.782Z,8.37
2019-05-07T11:07:42.206Z,9.47
2019-05-07T11:10:12.361Z,8.33
2019-05-07T11:12:42.478Z,7.47
2019-05-07T11:15:12.669Z,10.07
2019-05-07T11:17:48.443Z,5.43
2019-05-07T11:20:17.015Z,8.43
2019-05-07T11:22:45.378Z,8.57
2019-05-07T11:25:13.612Z,9.03
2019-05-07T11:27:42.313Z,7.60
2019-05-07T11:30:11.920Z,7.90
2019-05-07T11:32:42.777Z,6.97
2019-05-07T11:35:11.757Z,10.30
2019-05-07T11:37:44.092Z,7.07
2019-05-07T11:40:10.437Z,6.77
2019-05-07T11:42:49.339Z,6.47
2019-05-07T11:45:19.856Z,6.60
2019-05-07T11:47:48.506Z,8.47
2019-05-07T11:50:18.564Z,5.80
2019-05-07T11:52:54.526Z,4.90
2019-05-07T11:55:23.126Z,5.97
2019-05-07T11:57:52.180Z,5.83
2019-05-07T12:00:28.133Z,6.57
2019-05-07T12:02:56.718Z,6.77
2019-05-07T12:05:25.432Z,6.67
2019-05-07T12:07:54.117Z,8.87
2019-05-07T12:10:22.697Z,6.63
2019-05-07T12:12:52.105Z,9.10
2019-05-07T12:15:21.745Z,6.87
2019-05-07T12:17:52.155Z,6.30
2019-05-07T12:20:21.823Z,4.33
2019-05-07T12:22:51.977Z,7.10
2019-05-07T12:25:20.945Z,4.93
2019-05-07T12:27:50.024Z,7.53
2019-05-07T12:30:23.469Z,4.87
2019-05-07T12:33:12.218Z,4.80
2019-05-07T12:35:42.088Z,5.83
2019-05-07T12:38:12.690Z,5.50
2019-05-07T12:40:41.905Z,4.77
2019-05-07T12:43:10.732Z,6.10
2019-05-07T12:45:38.914Z,8.33
2019-05-07T12:48:11.195Z,5.30
2019-05-07T12:50:38.589Z,7.90
2019-05-07T12:53:08.429Z,6.03
2019-05-07T12:55:38.740Z,6.17
2019-05-07T12:58:07.354Z,4.00
2019-05-07T13:00:51.870Z,5.10
2019-05-07T13:03:27.019Z,6.30
2019-05-07T13:05:55.593Z,6.63
2019-05-07T13:08:23.823Z,4.60
2019-05-07T13:10:52.450Z,5.53
2019-05-07T13:13:20.659Z,6.30
2019-05-07T13:15:48.892Z,13.00
2019-05-07T13:18:17.999Z,12.43
2019-05-07T13:20:48.863Z,46.93
2019-05-07T13:23:16.675Z,23.30
2019-05-07T13:25:45.146Z,16.13
2019-05-07T13:28:13.352Z,18.07
2019-05-07T13:30:43.637Z,13.43
2019-05-07T13:33:12.320Z,14.93
2019-05-07T13:35:42.001Z,12.50
2019-05-07T13:38:14.596Z,13.00
2019-05-07T13:40:43.849Z,10.77
2019-05-07T13:43:29.018Z,10.37
2019-05-07T13:46:02.543Z,11.53
2019-05-07T13:48:31.974Z,16.60
2019-05-07T13:51:01.772Z,7.23
2019-05-07T13:53:32.140Z,8.03
2019-05-07T13:56:02.322Z,12.10
2019-05-07T13:58:32.743Z,18.03
2019-05-07T14:01:04.743Z,8.47
2019-05-07T14:03:33.049Z,11.67
2019-05-07T14:06:01.706Z,14.90
2019-05-07T14:08:33.024Z,6.47
2019-05-07T14:11:02.746Z,11.93
2019-05-07T14:13:31.351Z,12.10
2019-05-07T14:16:11.884Z,19.03
2019-05-07T14:18:39.739Z,55.03
2019-05-07T14:21:08.130Z,11.63
2019-05-07T14:23:36.544Z,5.43
2019-05-07T14:26:04.753Z,5.73
2019-05-07T14:28:33.101Z,7.70
2019-05-07T14:31:02.665Z,6.83
2019-05-07T14:33:35.432Z,6.73
2019-05-07T14:36:05.900Z,6.73
2019-05-07T14:38:38.437Z,6.03
2019-05-07T14:41:06.648Z,6.23
2019-05-07T14:43:36.580Z,6.73
2019-05-07T14:46:04.995Z,5.17
2019-05-07T14:48:36.097Z,4.80
2019-05-07T14:51:08.361Z,6.27
2019-05-07T14:53:36.976Z,8.00
2019-05-07T14:56:07.701Z,8.37
2019-05-07T14:58:36.362Z,12.87
2019-05-07T15:01:06.172Z,23.40
2019-05-07T15:03:36.856Z,20.07
2019-05-07T15:06:05.996Z,9.00
2019-05-07T15:08:34.209Z,13.17
2019-05-07T15:11:02.757Z,16.90
2019-05-07T15:13:32.277Z,17.83
2019-05-07T15:16:02.954Z,9.23
2019-05-07T15:18:52.763Z,14.87
2019-05-07T15:21:20.611Z,13.43
2019-05-07T15:23:49.596Z,9.13
2019-05-07T15:26:17.851Z,6.20
2019-05-07T15:28:47.718Z,14.87
2019-05-07T15:31:20.563Z,13.07
2019-05-07T15:33:49.314Z,13.07
2019-05-07T15:36:17.989Z,17.20
2019-05-07T15:38:46.663Z,14.77
2019-05-07T15:41:18.276Z,15.87
2019-05-07T15:43:46.784Z,16.63
2019-05-07T15:46:17.333Z,19.37
2019-05-07T15:48:45.680Z,11.63
2019-05-07T15:51:16.796Z,15.40
2019-05-07T15:53:52.804Z,13.20
2019-05-07T15:56:21.851Z,13.60
2019-05-07T15:58:51.760Z,17.80
2019-05-07T16:01:22.026Z,15.90
2019-05-07T16:03:54.398Z,18.33
2019-05-07T16:06:22.003Z,8.97
2019-05-07T16:08:52.593Z,23.87
2019-05-07T16:11:23.237Z,28.03
2019-05-07T16:14:05.341Z,240.87
2019-05-07T16:16:35.385Z,42.40
2019-05-07T16:19:06.004Z,40.93
2019-05-07T16:21:34.615Z,29.73
2019-05-07T16:24:04.078Z,22.63
2019-05-07T16:26:32.847Z,18.23
2019-05-07T16:29:04.355Z,18.20
2019-05-07T16:31:33.156Z,34.53
2019-05-07T16:34:02.529Z,39.80
2019-05-07T16:36:32.853Z,30.03
2019-05-07T16:39:03.226Z,36.37
2019-05-07T16:41:31.766Z,28.67
2019-05-07T16:44:02.746Z,36.67
2019-05-07T16:46:30.560Z,50.03
2019-05-07T16:48:59.617Z,49.87
2019-05-07T16:51:27.945Z,42.93
2019-05-07T16:53:56.234Z,43.20
2019-05-07T16:56:25.985Z,27.90
2019-05-07T16:58:55.933Z,35.90
2019-05-07T17:01:25.279Z,69.57
2019-05-07T17:03:55.541Z,85.47
2019-05-07T17:06:25.173Z,59.80
2019-05-07T17:08:55.540Z,42.27
2019-05-07T17:11:24.231Z,39.30
2019-05-07T17:13:53.184Z,53.07
2019-05-07T17:16:22.847Z,60.33
2019-05-07T17:18:51.877Z,55.13
2019-05-07T17:21:21.781Z,62.67
2019-05-07T17:23:51.911Z,28.07
2019-05-07T17:26:20.452Z,28.27
2019-05-07T17:28:48.894Z,32.77
2019-05-07T17:31:17.686Z,94.17
2019-05-07T17:33:46.364Z,95.37
2019-05-07T17:36:15.586Z,63.90
2019-05-07T17:38:43.874Z,48.37
2019-05-07T17:41:19.600Z,59.30
2019-05-07T17:43:42.223Z,58.73
2019-05-07T17:46:12.235Z,48.33
2019-05-07T17:48:42.659Z,34.20
2019-05-07T17:51:13.205Z,30.97
2019-05-07T17:53:50.444Z,28.57
2019-05-07T17:56:12.753Z,51.57
2019-05-07T17:58:42.845Z,44.40
2019-05-07T18:01:11.684Z,44.33
2019-05-07T18:03:42.790Z,28.40
2019-05-07T18:06:12.528Z,27.43
2019-05-07T18:08:41.355Z,25.93
2019-05-07T18:11:20.315Z,32.30
2019-05-07T18:13:42.174Z,27.27
2019-05-07T18:16:14.744Z,28.53
2019-05-07T18:18:43.293Z,51.40
2019-05-07T18:21:12.613Z,52.63
2019-05-07T18:23:41.314Z,44.77
2019-05-07T18:26:13.559Z,28.70
2019-05-07T18:28:41.712Z,29.73
2019-05-07T18:31:12.157Z,37.77
2019-05-07T18:33:45.009Z,28.67
2019-05-07T18:36:13.709Z,30.20
2019-05-07T18:38:42.493Z,29.53
2019-05-07T18:41:12.232Z,30.97
2019-05-07T18:43:42.124Z,37.60
2019-05-07T18:46:12.635Z,207.93
2019-05-07T18:48:42.639Z,40.37
2019-05-07T18:51:12.163Z,39.17
2019-05-07T18:53:42.323Z,46.60
2019-05-07T18:56:12.432Z,40.57
2019-05-07T18:58:42.594Z,38.10
2019-05-07T19:01:13.885Z,57.83
2019-05-07T19:03:42.170Z,53.13
2019-05-07T19:06:13.564Z,93.47
2019-05-07T19:08:42.333Z,111.80
2019-05-07T19:11:12.310Z,78.10
2019-05-07T19:13:41.990Z,68.03
2019-05-07T19:16:12.486Z,58.23
2019-05-07T19:18:43.278Z,57.83
2019-05-07T19:21:12.876Z,53.07
2019-05-07T19:23:42.394Z,55.87
2019-05-07T19:26:13.043Z,53.50
2019-05-07T19:28:42.103Z,52.17
2019-05-07T19:31:12.483Z,43.23
2019-05-07T19:33:42.049Z,46.17
2019-05-07T19:36:10.606Z,46.27
2019-05-07T19:38:39.183Z,56.17
2019-05-07T19:41:07.608Z,54.53
2019-05-07T19:43:36.301Z,54.00
2019-05-07T19:46:05.049Z,54.00
2019-05-07T19:48:33.654Z,50.77
2019-05-07T19:51:02.913Z,55.73
2019-05-07T19:53:32.672Z,53.80
2019-05-07T19:56:11.635Z,49.90
2019-05-07T19:58:41.948Z,47.70
2019-05-07T20:01:12.146Z,52.20
2019-05-07T20:03:43.447Z,39.43
2019-05-07T20:06:12.886Z,37.40
2019-05-07T20:08:43.617Z,65.63
2019-05-07T20:11:19.209Z,57.40
2019-05-07T20:13:48.132Z,48.27
2019-05-07T20:16:20.048Z,41.90
2019-05-07T20:18:48.743Z,37.50
2019-05-07T20:21:17.092Z,44.20
2019-05-07T20:23:45.474Z,43.50
2019-05-07T20:26:14.145Z,47.23
2019-05-07T20:28:42.488Z,59.60
2019-05-07T20:31:12.268Z,69.03
2019-05-07T20:33:42.261Z,50.33
2019-05-07T20:36:11.090Z,53.83
2019-05-07T20:38:39.336Z,62.37
2019-05-07T20:41:07.986Z,48.10
2019-05-07T20:43:36.377Z,119.93
2019-05-07T20:46:04.656Z,93.10
2019-05-07T20:48:33.196Z,59.87
2019-05-07T20:51:01.472Z,46.47
2019-05-07T20:53:47.787Z,57.10
2019-05-07T20:56:17.641Z,54.00
2019-05-07T20:58:45.874Z,52.10
2019-05-07T21:01:14.579Z,43.33
2019-05-07T21:03:42.965Z,37.03
2019-05-07T21:06:12.675Z,35.53
2019-05-07T21:08:42.792Z,32.63
2019-05-07T21:11:11.994Z,42.57
2019-05-07T21:13:42.622Z,41.73
2019-05-07T21:16:12.665Z,39.00
2019-05-07T21:18:42.119Z,70.07
2019-05-07T21:21:12.512Z,38.37
2019-05-07T21:23:43.182Z,42.67
2019-05-07T21:26:14.271Z,42.07
2019-05-07T21:28:43.538Z,30.87
2019-05-07T21:31:12.169Z,25.57
2019-05-07T21:33:42.814Z,26.43
2019-05-07T21:36:12.059Z,44.50
2019-05-07T21:38:42.520Z,58.77
2019-05-07T21:41:12.844Z,57.63
2019-05-07T21:43:45.634Z,45.40
2019-05-07T21:46:12.852Z,52.80
2019-05-07T21:48:41.988Z,45.60
2019-05-07T21:51:12.216Z,39.53
2019-05-07T21:53:43.254Z,34.40
2019-05-07T21:56:25.449Z,35.50
2019-05-07T21:58:58.956Z,32.60
2019-05-07T22:01:33.461Z,38.93
2019-05-07T22:04:02.370Z,39.53
2019-05-07T22:06:31.747Z,35.80
2019-05-07T22:09:01.992Z,32.73
2019-05-07T22:11:32.395Z,28.97
2019-05-07T22:14:03.047Z,25.97
2019-05-07T22:16:35.967Z,23.57
2019-05-07T22:19:05.643Z,22.23
2019-05-07T22:21:34.641Z,28.57
2019-05-07T22:24:03.036Z,29.60
2019-05-07T22:26:32.369Z,28.03
2019-05-07T22:29:03.147Z,27.30
2019-05-07T22:31:35.905Z,27.50
2019-05-07T22:34:22.663Z,28.53
2019-05-07T22:36:52.116Z,29.70
2019-05-07T22:39:22.059Z,26.53
2019-05-07T22:41:50.786Z,23.57
2019-05-07T22:44:19.201Z,22.60
2019-05-07T22:46:47.768Z,31.10
2019-05-07T22:49:16.256Z,34.63
2019-05-07T22:51:44.520Z,32.13
2019-05-07T22:54:13.320Z,20.97
2019-05-07T22:56:58.026Z,21.47
2019-05-07T22:59:26.258Z,19.77
2019-05-07T23:01:54.974Z,22.83
2019-05-07T23:04:23.712Z,23.87
2019-05-07T23:06:53.039Z,25.03
2019-05-07T23:09:22.346Z,22.20
2019-05-07T23:11:52.542Z,18.93
2019-05-07T23:14:22.586Z,22.87
2019-05-07T23:16:54.966Z,21.43
2019-05-07T23:19:22.088Z,22.97
2019-05-07T23:21:52.200Z,26.33
2019-05-07T23:24:22.599Z,24.37
2019-05-07T23:26:53.339Z,22.90
2019-05-07T23:29:22.464Z,33.80
2019-05-07T23:32:08.713Z,26.30
2019-05-07T23:34:37.257Z,31.33
2019-05-07T23:37:06.341Z,25.57
2019-05-07T23:39:36.872Z,25.87
2019-05-07T23:42:09.522Z,23.67
2019-05-07T23:44:38.234Z,24.20
2019-05-07T23:47:06.475Z,25.83
2019-05-07T23:49:34.858Z,22.53
2019-05-07T23:52:03.271Z,26.10
2019-05-07T23:54:32.004Z,25.50
2019-05-07T23:57:06.963Z,29.47
2019-05-07T23:59:32.688Z,27.53
